sensor_id;sensor_type;location;lat;lon;timestamp;P1;durP1;ratioP1;P2;durP2;ratioP2
15102;SDS011;7652;53.584;9.998;2023-04-06T00:01:48;8.73;;;3.87;;
15102;SDS011;7652;53.584;9.998;2023-04-06T00:04:51;5.43;;;3.60;;
15102;SDS011;7652;53.584;9.998;2023-04-06T00:07:54;5.07;;;3.50;;
15102;SDS011;7652;53.584;9.998;2023-04-06T00:10:57;5.37;;;3.47;;
15102;SDS011;7652;53.584;9.998;2023-04-06T00:14:00;4.70;;;3.80;;
15102;SDS011;7652;53.584;9.998;2023-04-06T00:17:04;4.87;;;3.60;;
15102;SDS011;7652;53.584;9.998;2023-04-06T00:20:08;4.53;;;3.50;;
15102;SDS011;7652;53.584;9.998;2023-04-06T00:23:11;5.60;;;3.87;;
15102;SDS011;7652;53.584;9.998;2023-04-06T00:26:14;5.37;;;3.97;;
15102;SDS011;7652;53.584;9.998;2023-04-06T00:29:17;4.77;;;3.20;;
15102;SDS011;7652;53.584;9.998;2023-04-06T00:32:21;6.27;;;4.10;;
15102;SDS011;7652;53.584;9.998;2023-04-06T00:35:24;5.80;;;3.80;;
15102;SDS011;7652;53.584;9.998;2023-04-06T00:38:27;5.70;;;3.90;;
15102;SDS011;7652;53.584;9.998;2023-04-06T00:41:30;5.80;;;3.80;;
15102;SDS011;7652;53.584;9.998;2023-04-06T00:44:33;4.80;;;3.43;;
15102;SDS011;7652;53.584;9.998;2023-04-06T00:47:37;5.97;;;4.20;;
15102;SDS011;7652;53.584;9.998;2023-04-06T00:50:40;4.83;;;3.87;;
15102;SDS011;7652;53.584;9.998;2023-04-06T00:53:44;5.90;;;3.87;;
15102;SDS011;7652;53.584;9.998;2023-04-06T00:56:47;6.77;;;4.03;;
15102;SDS011;7652;53.584;9.998;2023-04-06T00:59:50;6.70;;;3.73;;
15102;SDS011;7652;53.584;9.998;2023-04-06T01:02:56;5.33;;;4.07;;
15102;SDS011;7652;53.584;9.998;2023-04-06T01:05:59;4.40;;;3.43;;
15102;SDS011;7652;53.584;9.998;2023-04-06T01:09:02;8.67;;;4.10;;
15102;SDS011;7652;53.584;9.998;2023-04-06T01:12:05;6.73;;;3.73;;
15102;SDS011;7652;53.584;9.998;2023-04-06T01:15:08;4.67;;;3.57;;
15102;SDS011;7652;53.584;9.998;2023-04-06T01:18:14;4.27;;;3.50;;
15102;SDS011;7652;53.584;9.998;2023-04-06T01:21:17;6.90;;;3.90;;
15102;SDS011;7652;53.584;9.998;2023-04-06T01:24:21;5.20;;;3.60;;
15102;SDS011;7652;53.584;9.998;2023-04-06T01:27:24;5.90;;;4.03;;
15102;SDS011;7652;53.584;9.998;2023-04-06T01:30:29;6.30;;;4.20;;
15102;SDS011;7652;53.584;9.998;2023-04-06T01:33:32;4.43;;;3.40;;
15102;SDS011;7652;53.584;9.998;2023-04-06T01:36:35;5.60;;;3.90;;
15102;SDS011;7652;53.584;9.998;2023-04-06T01:39:39;6.50;;;3.83;;
15102;SDS011;7652;53.584;9.998;2023-04-06T01:42:44;5.97;;;3.90;;
15102;SDS011;7652;53.584;9.998;2023-04-06T01:45:47;7.80;;;4.30;;
15102;SDS011;7652;53.584;9.998;2023-04-06T01:48:50;6.30;;;4.33;;
15102;SDS011;7652;53.584;9.998;2023-04-06T01:51:54;5.03;;;3.90;;
15102;SDS011;7652;53.584;9.998;2023-04-06T01:54:58;4.80;;;3.50;;
15102;SDS011;7652;53.584;9.998;2023-04-06T01:58:01;6.30;;;4.27;;
15102;SDS011;7652;53.584;9.998;2023-04-06T02:01:04;5.93;;;3.93;;
15102;SDS011;7652;53.584;9.998;2023-04-06T02:04:07;5.60;;;3.80;;
15102;SDS011;7652;53.584;9.998;2023-04-06T02:07:10;4.37;;;3.37;;
15102;SDS011;7652;53.584;9.998;2023-04-06T02:10:15;7.67;;;4.73;;
15102;SDS011;7652;53.584;9.998;2023-04-06T02:13:17;6.47;;;3.90;;
15102;SDS011;7652;53.584;9.998;2023-04-06T02:16:21;6.37;;;3.50;;
15102;SDS011;7652;53.584;9.998;2023-04-06T02:19:24;5.10;;;3.37;;
15102;SDS011;7652;53.584;9.998;2023-04-06T02:22:27;4.67;;;3.93;;
15102;SDS011;7652;53.584;9.998;2023-04-06T02:25:31;4.53;;;3.87;;
15102;SDS011;7652;53.584;9.998;2023-04-06T02:28:34;4.97;;;3.73;;
15102;SDS011;7652;53.584;9.998;2023-04-06T02:31:37;4.57;;;4.03;;
15102;SDS011;7652;53.584;9.998;2023-04-06T02:34:40;5.47;;;3.70;;
15102;SDS011;7652;53.584;9.998;2023-04-06T02:37:43;4.90;;;3.70;;
15102;SDS011;7652;53.584;9.998;2023-04-06T02:40:47;6.30;;;4.17;;
15102;SDS011;7652;53.584;9.998;2023-04-06T02:43:50;5.27;;;4.03;;
15102;SDS011;7652;53.584;9.998;2023-04-06T02:46:53;3.50;;;3.20;;
15102;SDS011;7652;53.584;9.998;2023-04-06T02:49:56;4.83;;;3.97;;
15102;SDS011;7652;53.584;9.998;2023-04-06T02:52:59;5.70;;;3.50;;
15102;SDS011;7652;53.584;9.998;2023-04-06T02:56:04;6.33;;;4.03;;
15102;SDS011;7652;53.584;9.998;2023-04-06T02:59:07;4.37;;;3.87;;
15102;SDS011;7652;53.584;9.998;2023-04-06T03:02:11;5.57;;;4.00;;
15102;SDS011;7652;53.584;9.998;2023-04-06T03:05:14;4.73;;;3.67;;
15102;SDS011;7652;53.584;9.998;2023-04-06T03:08:17;4.77;;;4.17;;
15102;SDS011;7652;53.584;9.998;2023-04-06T03:11:22;5.07;;;3.97;;
15102;SDS011;7652;53.584;9.998;2023-04-06T03:14:25;7.60;;;4.10;;
15102;SDS011;7652;53.584;9.998;2023-04-06T03:17:27;5.17;;;4.00;;
15102;SDS011;7652;53.584;9.998;2023-04-06T03:20:30;6.90;;;3.80;;
15102;SDS011;7652;53.584;9.998;2023-04-06T03:23:33;5.13;;;3.93;;
15102;SDS011;7652;53.584;9.998;2023-04-06T03:26:38;5.87;;;3.73;;
15102;SDS011;7652;53.584;9.998;2023-04-06T03:29:41;6.10;;;4.17;;
15102;SDS011;7652;53.584;9.998;2023-04-06T03:32:44;7.10;;;3.87;;
15102;SDS011;7652;53.584;9.998;2023-04-06T03:35:47;6.70;;;4.10;;
15102;SDS011;7652;53.584;9.998;2023-04-06T03:38:50;6.30;;;3.83;;
15102;SDS011;7652;53.584;9.998;2023-04-06T03:41:56;8.80;;;4.17;;
15102;SDS011;7652;53.584;9.998;2023-04-06T03:44:58;7.00;;;4.17;;
15102;SDS011;7652;53.584;9.998;2023-04-06T03:48:01;6.10;;;3.97;;
15102;SDS011;7652;53.584;9.998;2023-04-06T03:51:05;6.60;;;3.87;;
15102;SDS011;7652;53.584;9.998;2023-04-06T03:54:08;6.00;;;4.20;;
15102;SDS011;7652;53.584;9.998;2023-04-06T03:57:12;6.43;;;4.53;;
15102;SDS011;7652;53.584;9.998;2023-04-06T04:00:15;5.93;;;4.77;;
15102;SDS011;7652;53.584;9.998;2023-04-06T04:03:18;7.33;;;4.73;;
15102;SDS011;7652;53.584;9.998;2023-04-06T04:06:23;7.90;;;4.93;;
15102;SDS011;7652;53.584;9.998;2023-04-06T04:09:26;6.03;;;4.50;;
15102;SDS011;7652;53.584;9.998;2023-04-06T04:12:31;7.87;;;5.00;;
15102;SDS011;7652;53.584;9.998;2023-04-06T04:15:34;7.10;;;4.77;;
15102;SDS011;7652;53.584;9.998;2023-04-06T04:18:37;5.83;;;4.50;;
15102;SDS011;7652;53.584;9.998;2023-04-06T04:21:44;7.30;;;5.00;;
15102;SDS011;7652;53.584;9.998;2023-04-06T04:24:48;5.10;;;4.43;;
15102;SDS011;7652;53.584;9.998;2023-04-06T04:27:53;5.83;;;4.67;;
15102;SDS011;7652;53.584;9.998;2023-04-06T04:30:56;5.47;;;4.80;;
15102;SDS011;7652;53.584;9.998;2023-04-06T04:33:59;7.00;;;4.73;;
15102;SDS011;7652;53.584;9.998;2023-04-06T04:37:02;4.87;;;4.30;;
15102;SDS011;7652;53.584;9.998;2023-04-06T04:40:06;7.27;;;4.80;;
15102;SDS011;7652;53.584;9.998;2023-04-06T04:43:11;8.17;;;4.57;;
15102;SDS011;7652;53.584;9.998;2023-04-06T04:46:14;6.10;;;4.50;;
15102;SDS011;7652;53.584;9.998;2023-04-06T04:49:17;6.17;;;4.67;;
15102;SDS011;7652;53.584;9.998;2023-04-06T04:52:20;8.30;;;4.90;;
15102;SDS011;7652;53.584;9.998;2023-04-06T04:55:23;7.50;;;4.67;;
15102;SDS011;7652;53.584;9.998;2023-04-06T04:58:27;6.53;;;4.73;;
15102;SDS011;7652;53.584;9.998;2023-04-06T05:01:30;7.03;;;4.77;;
15102;SDS011;7652;53.584;9.998;2023-04-06T05:04:51;5.23;;;4.30;;
15102;SDS011;7652;53.584;9.998;2023-04-06T05:07:54;4.77;;;4.07;;
15102;SDS011;7652;53.584;9.998;2023-04-06T05:10:57;6.43;;;4.83;;
15102;SDS011;7652;53.584;9.998;2023-04-06T05:14:02;4.93;;;4.47;;
15102;SDS011;7652;53.584;9.998;2023-04-06T05:17:07;4.97;;;4.47;;
15102;SDS011;7652;53.584;9.998;2023-04-06T05:20:10;8.30;;;4.83;;
15102;SDS011;7652;53.584;9.998;2023-04-06T05:23:13;6.87;;;4.30;;
15102;SDS011;7652;53.584;9.998;2023-04-06T05:26:16;5.40;;;4.67;;
15102;SDS011;7652;53.584;9.998;2023-04-06T05:29:21;6.17;;;4.20;;
15102;SDS011;7652;53.584;9.998;2023-04-06T05:32:24;7.33;;;4.43;;
15102;SDS011;7652;53.584;9.998;2023-04-06T05:35:27;5.20;;;4.40;;
15102;SDS011;7652;53.584;9.998;2023-04-06T05:38:30;8.63;;;5.10;;
15102;SDS011;7652;53.584;9.998;2023-04-06T05:41:34;7.23;;;4.50;;
15102;SDS011;7652;53.584;9.998;2023-04-06T05:44:38;6.37;;;4.80;;
15102;SDS011;7652;53.584;9.998;2023-04-06T05:47:42;6.03;;;5.10;;
15102;SDS011;7652;53.584;9.998;2023-04-06T05:50:47;5.70;;;4.60;;
15102;SDS011;7652;53.584;9.998;2023-04-06T05:53:50;6.10;;;5.03;;
15102;SDS011;7652;53.584;9.998;2023-04-06T05:56:53;7.30;;;4.87;;
15102;SDS011;7652;53.584;9.998;2023-04-06T05:59:57;6.80;;;5.10;;
15102;SDS011;7652;53.584;9.998;2023-04-06T06:03:01;6.53;;;5.03;;
15102;SDS011;7652;53.584;9.998;2023-04-06T06:06:05;11.80;;;5.03;;
15102;SDS011;7652;53.584;9.998;2023-04-06T06:09:08;6.43;;;5.10;;
15102;SDS011;7652;53.584;9.998;2023-04-06T06:12:11;10.00;;;5.20;;
15102;SDS011;7652;53.584;9.998;2023-04-06T06:15:16;8.93;;;5.70;;
15102;SDS011;7652;53.584;9.998;2023-04-06T06:18:19;7.90;;;5.73;;
15102;SDS011;7652;53.584;9.998;2023-04-06T06:21:22;7.57;;;5.40;;
15102;SDS011;7652;53.584;9.998;2023-04-06T06:24:25;5.97;;;5.27;;
15102;SDS011;7652;53.584;9.998;2023-04-06T06:27:31;10.80;;;5.57;;
15102;SDS011;7652;53.584;9.998;2023-04-06T06:30:36;7.27;;;5.47;;
15102;SDS011;7652;53.584;9.998;2023-04-06T06:33:39;7.80;;;5.77;;
15102;SDS011;7652;53.584;9.998;2023-04-06T06:36:41;10.63;;;5.37;;
15102;SDS011;7652;53.584;9.998;2023-04-06T06:39:48;6.80;;;5.53;;
15102;SDS011;7652;53.584;9.998;2023-04-06T06:42:51;8.50;;;6.07;;
15102;SDS011;7652;53.584;9.998;2023-04-06T06:45:55;5.53;;;5.03;;
15102;SDS011;7652;53.584;9.998;2023-04-06T06:49:00;6.67;;;5.03;;
15102;SDS011;7652;53.584;9.998;2023-04-06T06:52:04;9.60;;;6.20;;
15102;SDS011;7652;53.584;9.998;2023-04-06T06:55:09;8.67;;;5.93;;
15102;SDS011;7652;53.584;9.998;2023-04-06T06:58:12;6.03;;;5.37;;
15102;SDS011;7652;53.584;9.998;2023-04-06T07:01:17;6.47;;;5.20;;
15102;SDS011;7652;53.584;9.998;2023-04-06T07:04:20;6.73;;;5.30;;
15102;SDS011;7652;53.584;9.998;2023-04-06T07:07:23;6.50;;;5.20;;
15102;SDS011;7652;53.584;9.998;2023-04-06T07:10:26;7.67;;;4.87;;
15102;SDS011;7652;53.584;9.998;2023-04-06T07:13:29;7.03;;;4.87;;
15102;SDS011;7652;53.584;9.998;2023-04-06T07:16:36;6.83;;;4.80;;
15102;SDS011;7652;53.584;9.998;2023-04-06T07:19:39;5.97;;;4.90;;
15102;SDS011;7652;53.584;9.998;2023-04-06T07:22:43;11.03;;;5.10;;
15102;SDS011;7652;53.584;9.998;2023-04-06T07:25:47;6.07;;;4.90;;
15102;SDS011;7652;53.584;9.998;2023-04-06T07:28:52;8.27;;;5.13;;
15102;SDS011;7652;53.584;9.998;2023-04-06T07:31:56;5.87;;;4.47;;
15102;SDS011;7652;53.584;9.998;2023-04-06T07:34:59;5.63;;;4.57;;
15102;SDS011;7652;53.584;9.998;2023-04-06T07:38:02;7.50;;;5.07;;
15102;SDS011;7652;53.584;9.998;2023-04-06T07:41:05;9.83;;;5.20;;
15102;SDS011;7652;53.584;9.998;2023-04-06T07:44:08;6.53;;;4.70;;
15102;SDS011;7652;53.584;9.998;2023-04-06T07:47:13;5.43;;;4.90;;
15102;SDS011;7652;53.584;9.998;2023-04-06T07:50:16;10.07;;;4.37;;
15102;SDS011;7652;53.584;9.998;2023-04-06T07:53:19;9.77;;;4.47;;
15102;SDS011;7652;53.584;9.998;2023-04-06T07:56:22;7.10;;;4.27;;
15102;SDS011;7652;53.584;9.998;2023-04-06T07:59:26;5.87;;;3.93;;
15102;SDS011;7652;53.584;9.998;2023-04-06T08:02:30;8.80;;;4.53;;
15102;SDS011;7652;53.584;9.998;2023-04-06T08:05:34;6.67;;;4.23;;
15102;SDS011;7652;53.584;9.998;2023-04-06T08:08:37;5.97;;;3.87;;
15102;SDS011;7652;53.584;9.998;2023-04-06T08:11:40;5.30;;;4.43;;
15102;SDS011;7652;53.584;9.998;2023-04-06T08:14:43;5.87;;;3.93;;
15102;SDS011;7652;53.584;9.998;2023-04-06T08:17:47;4.60;;;4.13;;
15102;SDS011;7652;53.584;9.998;2023-04-06T08:20:50;5.17;;;3.93;;
15102;SDS011;7652;53.584;9.998;2023-04-06T08:23:53;5.97;;;3.90;;
15102;SDS011;7652;53.584;9.998;2023-04-06T08:26:56;4.13;;;3.73;;
15102;SDS011;7652;53.584;9.998;2023-04-06T08:29:59;4.57;;;4.00;;
15102;SDS011;7652;53.584;9.998;2023-04-06T08:33:03;4.93;;;3.87;;
15102;SDS011;7652;53.584;9.998;2023-04-06T08:36:10;6.40;;;3.77;;
15102;SDS011;7652;53.584;9.998;2023-04-06T08:39:14;5.10;;;4.17;;
15102;SDS011;7652;53.584;9.998;2023-04-06T08:42:19;4.80;;;4.40;;
15102;SDS011;7652;53.584;9.998;2023-04-06T08:45:22;5.93;;;4.30;;
15102;SDS011;7652;53.584;9.998;2023-04-06T08:48:27;6.00;;;5.27;;
15102;SDS011;7652;53.584;9.998;2023-04-06T08:51:30;6.67;;;4.80;;
15102;SDS011;7652;53.584;9.998;2023-04-06T08:54:33;4.43;;;4.03;;
15102;SDS011;7652;53.584;9.998;2023-04-06T08:57:36;5.17;;;4.00;;
15102;SDS011;7652;53.584;9.998;2023-04-06T09:00:40;4.57;;;4.17;;
15102;SDS011;7652;53.584;9.998;2023-04-06T09:03:44;8.07;;;4.47;;
15102;SDS011;7652;53.584;9.998;2023-04-06T09:06:49;5.07;;;3.80;;
15102;SDS011;7652;53.584;9.998;2023-04-06T09:09:52;7.30;;;4.40;;
15102;SDS011;7652;53.584;9.998;2023-04-06T09:13:02;4.87;;;3.50;;
15102;SDS011;7652;53.584;9.998;2023-04-06T09:16:07;5.63;;;3.73;;
15102;SDS011;7652;53.584;9.998;2023-04-06T09:19:11;6.13;;;4.00;;
15102;SDS011;7652;53.584;9.998;2023-04-06T09:22:14;4.83;;;4.03;;
15102;SDS011;7652;53.584;9.998;2023-04-06T09:25:18;4.10;;;3.67;;
15102;SDS011;7652;53.584;9.998;2023-04-06T09:28:24;4.07;;;3.43;;
15102;SDS011;7652;53.584;9.998;2023-04-06T09:31:27;5.83;;;3.17;;
15102;SDS011;7652;53.584;9.998;2023-04-06T09:34:33;5.87;;;3.53;;
15102;SDS011;7652;53.584;9.998;2023-04-06T09:37:36;3.73;;;3.30;;
15102;SDS011;7652;53.584;9.998;2023-04-06T09:40:47;4.20;;;2.77;;
15102;SDS011;7652;53.584;9.998;2023-04-06T09:44:02;7.27;;;2.93;;
15102;SDS011;7652;53.584;9.998;2023-04-06T09:47:06;5.43;;;2.90;;
15102;SDS011;7652;53.584;9.998;2023-04-06T09:50:12;7.67;;;3.70;;
15102;SDS011;7652;53.584;9.998;2023-04-06T09:53:16;5.80;;;3.27;;
15102;SDS011;7652;53.584;9.998;2023-04-06T09:56:22;5.07;;;3.23;;
15102;SDS011;7652;53.584;9.998;2023-04-06T09:59:31;4.20;;;3.03;;
15102;SDS011;7652;53.584;9.998;2023-04-06T10:02:44;3.90;;;2.80;;
15102;SDS011;7652;53.584;9.998;2023-04-06T10:05:54;3.83;;;2.80;;
15102;SDS011;7652;53.584;9.998;2023-04-06T10:09:00;3.30;;;2.90;;
15102;SDS011;7652;53.584;9.998;2023-04-06T10:12:05;4.77;;;2.90;;
15102;SDS011;7652;53.584;9.998;2023-04-06T10:15:09;3.40;;;2.57;;
15102;SDS011;7652;53.584;9.998;2023-04-06T10:18:13;2.43;;;2.23;;
15102;SDS011;7652;53.584;9.998;2023-04-06T10:21:19;3.67;;;2.77;;
15102;SDS011;7652;53.584;9.998;2023-04-06T10:24:26;2.90;;;2.70;;
15102;SDS011;7652;53.584;9.998;2023-04-06T10:27:29;2.93;;;2.63;;
15102;SDS011;7652;53.584;9.998;2023-04-06T10:30:33;3.27;;;2.97;;
15102;SDS011;7652;53.584;9.998;2023-04-06T10:33:36;3.20;;;2.90;;
15102;SDS011;7652;53.584;9.998;2023-04-06T10:36:41;3.43;;;2.97;;
15102;SDS011;7652;53.584;9.998;2023-04-06T10:39:47;3.70;;;3.30;;
15102;SDS011;7652;53.584;9.998;2023-04-06T10:43:06;3.90;;;3.10;;
15102;SDS011;7652;53.584;9.998;2023-04-06T10:46:10;3.60;;;3.20;;
15102;SDS011;7652;53.584;9.998;2023-04-06T10:49:14;4.80;;;3.20;;
15102;SDS011;7652;53.584;9.998;2023-04-06T10:52:18;4.03;;;3.63;;
15102;SDS011;7652;53.584;9.998;2023-04-06T10:55:21;4.30;;;3.50;;
15102;SDS011;7652;53.584;9.998;2023-04-06T10:58:24;4.60;;;3.50;;
15102;SDS011;7652;53.584;9.998;2023-04-06T11:01:28;4.67;;;3.50;;
15102;SDS011;7652;53.584;9.998;2023-04-06T11:04:31;3.93;;;3.50;;
15102;SDS011;7652;53.584;9.998;2023-04-06T11:07:36;4.07;;;3.43;;
15102;SDS011;7652;53.584;9.998;2023-04-06T11:10:39;7.00;;;3.17;;
15102;SDS011;7652;53.584;9.998;2023-04-06T11:13:42;4.47;;;4.07;;
15102;SDS011;7652;53.584;9.998;2023-04-06T11:16:47;4.93;;;4.47;;
15102;SDS011;7652;53.584;9.998;2023-04-06T11:19:51;4.83;;;4.23;;
15102;SDS011;7652;53.584;9.998;2023-04-06T11:22:55;4.43;;;3.80;;
15102;SDS011;7652;53.584;9.998;2023-04-06T11:26:00;5.20;;;4.70;;
15102;SDS011;7652;53.584;9.998;2023-04-06T11:29:04;4.97;;;4.23;;
15102;SDS011;7652;53.584;9.998;2023-04-06T11:32:07;5.10;;;4.53;;
15102;SDS011;7652;53.584;9.998;2023-04-06T11:35:10;4.70;;;4.30;;
15102;SDS011;7652;53.584;9.998;2023-04-06T11:38:18;5.70;;;5.20;;
15102;SDS011;7652;53.584;9.998;2023-04-06T11:41:23;5.53;;;4.97;;
15102;SDS011;7652;53.584;9.998;2023-04-06T11:44:28;6.87;;;5.13;;
15102;SDS011;7652;53.584;9.998;2023-04-06T11:47:34;6.20;;;4.77;;
15102;SDS011;7652;53.584;9.998;2023-04-06T11:50:39;5.73;;;4.93;;
15102;SDS011;7652;53.584;9.998;2023-04-06T11:53:44;6.63;;;4.97;;
15102;SDS011;7652;53.584;9.998;2023-04-06T11:56:48;6.17;;;5.07;;
15102;SDS011;7652;53.584;9.998;2023-04-06T11:59:51;5.43;;;4.40;;
15102;SDS011;7652;53.584;9.998;2023-04-06T12:02:54;7.60;;;4.70;;
15102;SDS011;7652;53.584;9.998;2023-04-06T12:05:57;5.47;;;4.97;;
15102;SDS011;7652;53.584;9.998;2023-04-06T12:09:01;5.20;;;4.73;;
15102;SDS011;7652;53.584;9.998;2023-04-06T12:12:04;5.20;;;4.70;;
15102;SDS011;7652;53.584;9.998;2023-04-06T12:15:08;7.00;;;5.10;;
15102;SDS011;7652;53.584;9.998;2023-04-06T12:18:11;5.23;;;4.73;;
15102;SDS011;7652;53.584;9.998;2023-04-06T12:21:14;5.43;;;4.87;;
15102;SDS011;7652;53.584;9.998;2023-04-06T12:24:18;4.47;;;4.07;;
15102;SDS011;7652;53.584;9.998;2023-04-06T12:27:21;5.80;;;5.17;;
15102;SDS011;7652;53.584;9.998;2023-04-06T12:30:24;5.03;;;4.63;;
15102;SDS011;7652;53.584;9.998;2023-04-06T12:33:27;6.03;;;5.23;;
15102;SDS011;7652;53.584;9.998;2023-04-06T12:36:31;6.33;;;5.50;;
15102;SDS011;7652;53.584;9.998;2023-04-06T12:39:35;5.30;;;4.80;;
15102;SDS011;7652;53.584;9.998;2023-04-06T12:42:38;6.27;;;4.83;;
15102;SDS011;7652;53.584;9.998;2023-04-06T12:45:42;5.50;;;5.00;;
15102;SDS011;7652;53.584;9.998;2023-04-06T12:48:45;5.77;;;5.17;;
15102;SDS011;7652;53.584;9.998;2023-04-06T12:51:49;5.57;;;5.07;;
15102;SDS011;7652;53.584;9.998;2023-04-06T12:54:53;5.20;;;4.80;;
15102;SDS011;7652;53.584;9.998;2023-04-06T12:57:57;6.00;;;5.23;;
15102;SDS011;7652;53.584;9.998;2023-04-06T13:01:00;7.13;;;5.17;;
15102;SDS011;7652;53.584;9.998;2023-04-06T13:04:04;6.10;;;5.17;;
15102;SDS011;7652;53.584;9.998;2023-04-06T13:07:07;5.90;;;5.40;;
15102;SDS011;7652;53.584;9.998;2023-04-06T13:10:11;5.47;;;4.97;;
15102;SDS011;7652;53.584;9.998;2023-04-06T13:13:15;6.97;;;5.60;;
15102;SDS011;7652;53.584;9.998;2023-04-06T13:16:18;5.77;;;5.23;;
15102;SDS011;7652;53.584;9.998;2023-04-06T13:19:22;5.67;;;5.00;;
15102;SDS011;7652;53.584;9.998;2023-04-06T13:22:24;6.20;;;5.23;;
15102;SDS011;7652;53.584;9.998;2023-04-06T13:25:29;5.50;;;5.00;;
15102;SDS011;7652;53.584;9.998;2023-04-06T13:28:34;7.67;;;5.37;;
15102;SDS011;7652;53.584;9.998;2023-04-06T13:31:39;7.27;;;5.30;;
15102;SDS011;7652;53.584;9.998;2023-04-06T13:34:42;6.57;;;5.80;;
15102;SDS011;7652;53.584;9.998;2023-04-06T13:37:46;6.03;;;5.40;;
15102;SDS011;7652;53.584;9.998;2023-04-06T13:40:50;6.37;;;5.50;;
15102;SDS011;7652;53.584;9.998;2023-04-06T13:43:53;7.50;;;5.57;;
15102;SDS011;7652;53.584;9.998;2023-04-06T13:46:56;7.63;;;5.70;;
15102;SDS011;7652;53.584;9.998;2023-04-06T13:49:59;5.63;;;5.03;;
15102;SDS011;7652;53.584;9.998;2023-04-06T13:53:03;7.97;;;5.67;;
15102;SDS011;7652;53.584;9.998;2023-04-06T13:56:07;5.73;;;5.13;;
15102;SDS011;7652;53.584;9.998;2023-04-06T13:59:10;6.00;;;5.40;;
15102;SDS011;7652;53.584;9.998;2023-04-06T14:02:15;7.40;;;5.60;;
15102;SDS011;7652;53.584;9.998;2023-04-06T14:05:18;6.30;;;5.40;;
15102;SDS011;7652;53.584;9.998;2023-04-06T14:08:22;6.00;;;5.40;;
15102;SDS011;7652;53.584;9.998;2023-04-06T14:11:26;7.47;;;5.30;;
15102;SDS011;7652;53.584;9.998;2023-04-06T14:14:29;9.07;;;5.43;;
15102;SDS011;7652;53.584;9.998;2023-04-06T14:17:32;6.37;;;5.37;;
15102;SDS011;7652;53.584;9.998;2023-04-06T14:20:35;7.07;;;5.60;;
15102;SDS011;7652;53.584;9.998;2023-04-06T14:23:38;9.33;;;5.63;;
15102;SDS011;7652;53.584;9.998;2023-04-06T14:26:43;8.73;;;5.70;;
15102;SDS011;7652;53.584;9.998;2023-04-06T14:29:46;7.30;;;5.80;;
15102;SDS011;7652;53.584;9.998;2023-04-06T14:32:49;6.13;;;5.53;;
15102;SDS011;7652;53.584;9.998;2023-04-06T14:35:52;7.10;;;5.93;;
15102;SDS011;7652;53.584;9.998;2023-04-06T14:38:56;5.90;;;5.03;;
15102;SDS011;7652;53.584;9.998;2023-04-06T14:42:01;8.23;;;6.03;;
15102;SDS011;7652;53.584;9.998;2023-04-06T14:45:04;6.73;;;6.00;;
15102;SDS011;7652;53.584;9.998;2023-04-06T14:48:08;8.67;;;5.50;;
15102;SDS011;7652;53.584;9.998;2023-04-06T14:51:13;6.43;;;5.70;;
15102;SDS011;7652;53.584;9.998;2023-04-06T14:54:16;6.63;;;5.63;;
15102;SDS011;7652;53.584;9.998;2023-04-06T14:57:20;5.70;;;5.07;;
15102;SDS011;7652;53.584;9.998;2023-04-06T15:00:24;6.33;;;5.43;;
15102;SDS011;7652;53.584;9.998;2023-04-06T15:03:27;6.03;;;5.40;;
15102;SDS011;7652;53.584;9.998;2023-04-06T15:06:30;5.80;;;5.20;;
15102;SDS011;7652;53.584;9.998;2023-04-06T15:09:33;8.50;;;5.57;;
15102;SDS011;7652;53.584;9.998;2023-04-06T15:12:39;5.57;;;4.77;;
15102;SDS011;7652;53.584;9.998;2023-04-06T15:15:42;5.20;;;4.70;;
15102;SDS011;7652;53.584;9.998;2023-04-06T15:18:45;7.10;;;5.63;;
15102;SDS011;7652;53.584;9.998;2023-04-06T15:21:48;5.83;;;4.77;;
15102;SDS011;7652;53.584;9.998;2023-04-06T15:24:51;6.40;;;5.10;;
15102;SDS011;7652;53.584;9.998;2023-04-06T15:27:56;5.73;;;5.13;;
15102;SDS011;7652;53.584;9.998;2023-04-06T15:31:02;6.37;;;5.07;;
15102;SDS011;7652;53.584;9.998;2023-04-06T15:34:07;6.07;;;5.40;;
15102;SDS011;7652;53.584;9.998;2023-04-06T15:37:10;6.20;;;5.10;;
15102;SDS011;7652;53.584;9.998;2023-04-06T15:40:13;6.30;;;5.70;;
15102;SDS011;7652;53.584;9.998;2023-04-06T15:43:18;8.23;;;5.47;;
15102;SDS011;7652;53.584;9.998;2023-04-06T15:46:21;6.87;;;5.57;;
15102;SDS011;7652;53.584;9.998;2023-04-06T15:49:25;7.73;;;5.60;;
15102;SDS011;7652;53.584;9.998;2023-04-06T15:52:28;6.07;;;5.43;;
15102;SDS011;7652;53.584;9.998;2023-04-06T15:55:31;6.40;;;5.13;;
15102;SDS011;7652;53.584;9.998;2023-04-06T15:58:35;5.87;;;5.07;;
15102;SDS011;7652;53.584;9.998;2023-04-06T16:01:38;6.10;;;5.50;;
15102;SDS011;7652;53.584;9.998;2023-04-06T16:04:43;7.37;;;5.73;;
15102;SDS011;7652;53.584;9.998;2023-04-06T16:07:46;5.77;;;5.20;;
15102;SDS011;7652;53.584;9.998;2023-04-06T16:10:49;5.60;;;4.97;;
15102;SDS011;7652;53.584;9.998;2023-04-06T16:13:54;6.37;;;5.67;;
15102;SDS011;7652;53.584;9.998;2023-04-06T16:16:57;6.50;;;4.90;;
15102;SDS011;7652;53.584;9.998;2023-04-06T16:20:00;5.57;;;5.00;;
15102;SDS011;7652;53.584;9.998;2023-04-06T16:23:05;6.70;;;5.33;;
15102;SDS011;7652;53.584;9.998;2023-04-06T16:26:10;7.60;;;5.23;;
15102;SDS011;7652;53.584;9.998;2023-04-06T16:29:14;6.77;;;5.53;;
15102;SDS011;7652;53.584;9.998;2023-04-06T16:32:18;9.70;;;5.63;;
15102;SDS011;7652;53.584;9.998;2023-04-06T16:35:21;7.03;;;5.93;;
15102;SDS011;7652;53.584;9.998;2023-04-06T16:38:26;6.53;;;5.70;;
15102;SDS011;7652;53.584;9.998;2023-04-06T16:41:35;6.17;;;5.37;;
15102;SDS011;7652;53.584;9.998;2023-04-06T16:44:41;5.67;;;5.07;;
15102;SDS011;7652;53.584;9.998;2023-04-06T16:47:43;6.20;;;5.47;;
15102;SDS011;7652;53.584;9.998;2023-04-06T16:50:48;5.70;;;5.10;;
15102;SDS011;7652;53.584;9.998;2023-04-06T16:53:51;5.60;;;5.10;;
15102;SDS011;7652;53.584;9.998;2023-04-06T16:56:55;7.33;;;5.50;;
15102;SDS011;7652;53.584;9.998;2023-04-06T16:59:59;6.53;;;5.80;;
15102;SDS011;7652;53.584;9.998;2023-04-06T17:03:02;7.10;;;5.60;;
15102;SDS011;7652;53.584;9.998;2023-04-06T17:06:06;7.23;;;5.73;;
15102;SDS011;7652;53.584;9.998;2023-04-06T17:09:09;8.20;;;5.73;;
15102;SDS011;7652;53.584;9.998;2023-04-06T17:12:12;6.93;;;5.53;;
15102;SDS011;7652;53.584;9.998;2023-04-06T17:15:17;6.93;;;5.47;;
15102;SDS011;7652;53.584;9.998;2023-04-06T17:18:20;6.90;;;5.30;;
15102;SDS011;7652;53.584;9.998;2023-04-06T17:21:23;5.67;;;5.17;;
15102;SDS011;7652;53.584;9.998;2023-04-06T17:24:26;6.83;;;5.37;;
15102;SDS011;7652;53.584;9.998;2023-04-06T17:27:29;6.97;;;5.63;;
15102;SDS011;7652;53.584;9.998;2023-04-06T17:30:34;6.00;;;5.40;;
15102;SDS011;7652;53.584;9.998;2023-04-06T17:33:37;6.57;;;5.93;;
15102;SDS011;7652;53.584;9.998;2023-04-06T17:36:41;7.17;;;5.77;;
15102;SDS011;7652;53.584;9.998;2023-04-06T17:39:44;6.07;;;5.40;;
15102;SDS011;7652;53.584;9.998;2023-04-06T17:42:47;6.07;;;5.30;;
15102;SDS011;7652;53.584;9.998;2023-04-06T17:45:51;8.40;;;5.53;;
15102;SDS011;7652;53.584;9.998;2023-04-06T17:48:54;8.03;;;5.93;;
15102;SDS011;7652;53.584;9.998;2023-04-06T17:51:57;6.27;;;5.63;;
15102;SDS011;7652;53.584;9.998;2023-04-06T17:55:00;6.37;;;5.77;;
15102;SDS011;7652;53.584;9.998;2023-04-06T17:58:03;6.97;;;5.23;;
15102;SDS011;7652;53.584;9.998;2023-04-06T18:01:08;7.53;;;5.73;;
15102;SDS011;7652;53.584;9.998;2023-04-06T18:04:12;7.90;;;5.43;;
15102;SDS011;7652;53.584;9.998;2023-04-06T18:07:15;7.63;;;5.53;;
15102;SDS011;7652;53.584;9.998;2023-04-06T18:10:18;7.37;;;5.67;;
15102;SDS011;7652;53.584;9.998;2023-04-06T18:13:21;7.40;;;5.73;;
15102;SDS011;7652;53.584;9.998;2023-04-06T18:16:25;6.83;;;5.97;;
15102;SDS011;7652;53.584;9.998;2023-04-06T18:19:30;6.70;;;5.93;;
15102;SDS011;7652;53.584;9.998;2023-04-06T18:22:34;8.13;;;6.03;;
15102;SDS011;7652;53.584;9.998;2023-04-06T18:25:38;8.73;;;5.83;;
15102;SDS011;7652;53.584;9.998;2023-04-06T18:28:41;8.33;;;5.43;;
15102;SDS011;7652;53.584;9.998;2023-04-06T18:31:45;8.70;;;5.60;;
15102;SDS011;7652;53.584;9.998;2023-04-06T18:34:50;9.03;;;6.20;;
15102;SDS011;7652;53.584;9.998;2023-04-06T18:37:57;8.37;;;6.07;;
15102;SDS011;7652;53.584;9.998;2023-04-06T18:41:00;7.37;;;5.63;;
15102;SDS011;7652;53.584;9.998;2023-04-06T18:44:03;7.97;;;6.03;;